createdAt,value
2023-02-07T00:01:29.588Z,50.97
2023-02-07T00:03:58.784Z,47.53
2023-02-07T00:06:31.174Z,46.13
2023-02-07T00:09:05.181Z,44.03
2023-02-07T00:11:32.452Z,44.45
2023-02-07T00:14:00.165Z,54.72
2023-02-07T00:16:28.666Z,43.58
2023-02-07T00:18:59.059Z,50.20
2023-02-07T00:21:29.128Z,43.17
2023-02-07T00:23:56.995Z,38.10
2023-02-07T00:26:27.283Z,50.47
2023-02-07T00:28:55.757Z,39.50
2023-02-07T00:31:31.044Z,44.90
2023-02-07T00:36:31.709Z,46.55
2023-02-07T00:39:01.965Z,51.33
2023-02-07T00:41:29.768Z,46.13
2023-02-07T00:43:56.841Z,47.70
2023-02-07T00:46:25.127Z,52.00
2023-02-07T00:48:54.906Z,51.00
2023-02-07T00:51:24.207Z,45.95
2023-02-07T00:53:55.931Z,49.97
2023-02-07T00:56:28.898Z,48.63
2023-02-07T00:58:58.873Z,46.03
2023-02-07T01:01:27.613Z,51.63
2023-02-07T01:03:56.828Z,49.58
2023-02-07T01:06:23.940Z,50.75
2023-02-07T01:08:50.991Z,58.35
2023-02-07T01:11:18.989Z,54.63
2023-02-07T01:13:46.092Z,54.30
2023-02-07T01:16:33.669Z,56.42
2023-02-07T01:19:07.143Z,57.75
2023-02-07T01:21:34.463Z,57.63
2023-02-07T01:24:01.468Z,65.68
2023-02-07T01:26:29.095Z,63.20
2023-02-07T01:28:57.023Z,52.13
2023-02-07T01:31:24.747Z,64.43
2023-02-07T01:34:00.662Z,52.47
2023-02-07T01:36:29.940Z,63.53
2023-02-07T01:38:57.853Z,58.97
2023-02-07T01:41:27.804Z,66.03
2023-02-07T01:44:09.219Z,67.63
2023-02-07T01:46:37.025Z,50.90
2023-02-07T01:49:10.133Z,61.45
2023-02-07T01:51:45.063Z,50.13
2023-02-07T01:54:16.354Z,49.30
2023-02-07T01:56:52.170Z,49.20
2023-02-07T01:59:19.548Z,51.30
2023-02-07T02:01:47.437Z,56.15
2023-02-07T02:04:14.576Z,53.22
2023-02-07T02:06:43.022Z,47.88
2023-02-07T02:09:15.815Z,56.90
2023-02-07T02:12:08.629Z,54.50
2023-02-07T02:15:03.634Z,55.03
2023-02-07T02:18:06.620Z,52.08
2023-02-07T02:20:59.306Z,57.38
2023-02-07T02:23:44.276Z,53.15
2023-02-07T02:29:43.595Z,44.28
2023-02-07T02:32:57.159Z,60.50
2023-02-07T02:35:36.843Z,47.50
2023-02-07T02:38:22.660Z,54.65
2023-02-07T02:41:01.630Z,62.33
2023-02-07T02:43:41.075Z,62.58
2023-02-07T02:46:29.136Z,65.00
2023-02-07T02:49:02.800Z,63.90
2023-02-07T02:51:31.196Z,74.68
2023-02-07T02:54:00.565Z,71.20
2023-02-07T02:59:46.798Z,56.83
2023-02-07T03:02:57.631Z,65.65
2023-02-07T03:05:24.772Z,60.60
2023-02-07T03:08:26.204Z,71.07
2023-02-07T03:11:14.442Z,68.32
2023-02-07T03:14:19.950Z,71.68
2023-02-07T03:17:15.465Z,66.30
2023-02-07T03:22:26.114Z,58.80
2023-02-07T03:24:59.589Z,54.85
2023-02-07T03:27:33.089Z,64.55
2023-02-07T03:30:08.845Z,58.08
2023-02-07T03:32:42.119Z,62.03
2023-02-07T03:35:38.132Z,63.25
2023-02-07T03:38:06.799Z,65.53
2023-02-07T03:40:46.102Z,69.35
2023-02-07T03:43:18.288Z,66.00
2023-02-07T03:45:45.322Z,63.13
2023-02-07T03:48:12.861Z,63.53
2023-02-07T03:50:39.901Z,72.13
2023-02-07T03:53:06.988Z,65.50
2023-02-07T03:55:35.464Z,81.88
2023-02-07T03:58:02.642Z,80.57
2023-02-07T04:00:29.597Z,73.18
2023-02-07T04:02:56.616Z,69.03
2023-02-07T04:05:23.585Z,70.88
2023-02-07T04:07:50.609Z,75.90
2023-02-07T04:10:17.821Z,79.47
2023-02-07T04:12:45.788Z,72.80
2023-02-07T04:15:13.421Z,79.90
2023-02-07T04:17:40.413Z,77.88
2023-02-07T04:20:09.087Z,91.93
2023-02-07T04:22:36.078Z,79.05
2023-02-07T04:25:03.136Z,78.47
2023-02-07T04:27:30.166Z,75.85
2023-02-07T04:29:57.100Z,85.13
2023-02-07T04:32:24.177Z,93.93
2023-02-07T04:34:51.116Z,101.57
2023-02-07T04:37:18.079Z,184.60
2023-02-07T04:39:45.864Z,224.05
2023-02-07T04:42:13.302Z,293.38
2023-02-07T04:44:40.264Z,245.55
2023-02-07T04:47:07.241Z,540.67
2023-02-07T04:49:34.884Z,353.02
2023-02-07T04:52:02.286Z,216.07
2023-02-07T04:54:29.287Z,222.57
2023-02-07T04:56:56.396Z,343.45
2023-02-07T04:59:23.373Z,311.13
2023-02-07T05:01:50.377Z,267.58
2023-02-07T05:04:17.432Z,258.95
2023-02-07T05:06:44.859Z,336.70
2023-02-07T05:09:11.997Z,229.43
2023-02-07T05:11:38.973Z,275.67
2023-02-07T05:14:05.956Z,283.08
2023-02-07T05:16:32.955Z,316.58
2023-02-07T05:18:59.941Z,187.73
2023-02-07T05:21:27.122Z,234.95
2023-02-07T05:23:54.098Z,151.80
2023-02-07T05:26:21.045Z,123.22
2023-02-07T05:28:47.991Z,159.85
2023-02-07T05:31:15.255Z,99.45
2023-02-07T05:33:42.308Z,102.32
2023-02-07T05:36:09.611Z,105.57
2023-02-07T05:38:36.688Z,128.55
2023-02-07T05:41:03.860Z,87.60
2023-02-07T05:43:30.834Z,80.95
2023-02-07T05:45:57.828Z,113.15
2023-02-07T05:48:24.885Z,85.95
2023-02-07T05:50:51.839Z,80.65
2023-02-07T05:53:18.913Z,95.72
2023-02-07T05:55:45.909Z,110.03
2023-02-07T05:58:12.894Z,90.10
2023-02-07T06:00:48.172Z,81.78
2023-02-07T06:03:15.150Z,81.85
2023-02-07T06:05:42.166Z,60.00
2023-02-07T06:08:09.104Z,68.47
2023-02-07T06:10:36.229Z,69.07
2023-02-07T06:13:05.967Z,70.78
2023-02-07T06:15:32.996Z,68.65
2023-02-07T06:18:00.127Z,70.65
2023-02-07T06:20:27.111Z,63.75
2023-02-07T06:22:54.158Z,65.53
2023-02-07T06:25:21.579Z,72.03
2023-02-07T06:27:48.831Z,70.75
2023-02-07T06:30:15.889Z,81.90
2023-02-07T06:32:42.825Z,195.90
2023-02-07T06:35:09.836Z,108.40
2023-02-07T06:37:36.908Z,175.15
2023-02-07T06:40:04.647Z,104.13
2023-02-07T06:42:31.693Z,80.28
2023-02-07T06:44:58.821Z,100.47
2023-02-07T06:47:25.840Z,81.38
2023-02-07T06:49:52.784Z,87.72
2023-02-07T06:52:19.811Z,99.47
2023-02-07T06:54:46.797Z,117.80
2023-02-07T06:57:13.767Z,229.13
2023-02-07T06:59:40.692Z,153.52
2023-02-07T07:02:07.625Z,221.85
2023-02-07T07:04:34.654Z,147.63
2023-02-07T07:07:01.676Z,282.80
2023-02-07T07:09:28.789Z,290.83
2023-02-07T07:11:55.811Z,185.02
2023-02-07T07:14:22.860Z,339.40
2023-02-07T07:16:49.880Z,319.40
2023-02-07T07:19:16.928Z,386.80
2023-02-07T07:21:43.827Z,294.73
2023-02-07T07:24:10.810Z,339.70
2023-02-07T07:26:48.919Z,442.98
2023-02-07T07:29:18.722Z,230.18
2023-02-07T07:31:47.230Z,336.05
2023-02-07T07:34:14.921Z,273.35
2023-02-07T07:36:42.195Z,268.05
2023-02-07T07:39:09.310Z,194.15
2023-02-07T07:41:36.486Z,141.20
2023-02-07T07:44:03.721Z,143.63
2023-02-07T07:46:30.698Z,161.70
2023-02-07T07:48:58.054Z,94.13
2023-02-07T07:51:25.122Z,91.00
2023-02-07T07:53:52.072Z,70.75
2023-02-07T07:56:18.990Z,77.90
2023-02-07T07:58:46.036Z,70.80
2023-02-07T08:01:13.058Z,65.05
2023-02-07T08:03:40.057Z,62.28
2023-02-07T08:06:08.303Z,66.00
2023-02-07T08:08:35.252Z,66.28
2023-02-07T08:11:05.802Z,66.55
2023-02-07T08:13:33.424Z,70.63
2023-02-07T08:16:02.162Z,62.47
2023-02-07T08:18:29.724Z,71.22
2023-02-07T08:20:57.020Z,66.03
2023-02-07T08:23:24.019Z,78.28
2023-02-07T08:25:51.511Z,80.45
2023-02-07T08:28:19.861Z,67.45
2023-02-07T08:30:50.211Z,95.03
2023-02-07T08:33:17.610Z,67.68
2023-02-07T08:35:45.120Z,155.38
2023-02-07T08:38:12.662Z,134.73
2023-02-07T08:40:39.974Z,131.00
2023-02-07T08:43:12.180Z,78.43
2023-02-07T08:45:41.100Z,75.78
2023-02-07T08:48:09.131Z,90.80
2023-02-07T08:50:36.102Z,76.60
2023-02-07T08:53:03.249Z,73.72
2023-02-07T08:55:30.746Z,74.00
2023-02-07T08:57:57.784Z,92.00
2023-02-07T09:00:24.966Z,74.65
2023-02-07T09:02:51.982Z,66.88
2023-02-07T09:05:19.192Z,72.30
2023-02-07T09:07:46.245Z,71.53
2023-02-07T09:10:13.268Z,64.65
2023-02-07T09:12:40.276Z,70.05
2023-02-07T09:15:08.019Z,62.85
2023-02-07T09:17:35.142Z,63.72
2023-02-07T09:20:02.144Z,57.60
2023-02-07T09:22:29.169Z,55.80
2023-02-07T09:24:56.372Z,58.83
2023-02-07T09:27:23.406Z,52.63
2023-02-07T09:29:50.416Z,55.50
2023-02-07T09:32:17.320Z,61.92
2023-02-07T09:34:44.569Z,56.53
2023-02-07T09:37:11.486Z,54.75
2023-02-07T09:39:40.154Z,50.67
2023-02-07T09:42:26.617Z,56.42
2023-02-07T09:45:16.911Z,57.03
2023-02-07T09:47:50.317Z,51.83
2023-02-07T09:50:34.312Z,52.05
2023-02-07T09:53:16.599Z,55.50
2023-02-07T09:55:53.009Z,53.85
2023-02-07T09:58:45.292Z,55.58
2023-02-07T10:01:24.155Z,46.95
2023-02-07T10:04:18.516Z,46.65
2023-02-07T10:06:52.699Z,47.40
2023-02-07T10:09:28.262Z,47.05
2023-02-07T10:12:16.434Z,44.22
2023-02-07T10:15:27.729Z,49.63
2023-02-07T10:18:31.701Z,46.85
2023-02-07T10:21:10.713Z,46.20
2023-02-07T10:23:55.983Z,46.22
2023-02-07T10:26:43.234Z,46.28
2023-02-07T10:29:42.708Z,43.47
2023-02-07T10:32:38.202Z,43.25
2023-02-07T10:35:18.848Z,36.13
2023-02-07T10:37:51.232Z,38.15
2023-02-07T10:40:33.456Z,53.70
2023-02-07T10:43:15.754Z,36.15
2023-02-07T10:45:42.794Z,32.80
2023-02-07T10:48:16.848Z,33.47
2023-02-07T10:50:44.083Z,31.77
2023-02-07T10:53:11.338Z,31.25
2023-02-07T10:55:47.997Z,36.92
2023-02-07T10:58:24.483Z,30.08
2023-02-07T11:00:54.936Z,26.73
2023-02-07T11:03:25.318Z,24.58
2023-02-07T11:06:06.134Z,24.65
2023-02-07T11:08:35.653Z,26.75
2023-02-07T11:11:32.788Z,23.27
2023-02-07T11:14:07.230Z,25.50
2023-02-07T11:16:35.372Z,26.77
2023-02-07T11:19:07.717Z,21.40
2023-02-07T11:21:44.104Z,23.98
2023-02-07T11:24:29.108Z,24.00
2023-02-07T11:27:03.233Z,25.25
2023-02-07T11:29:37.336Z,20.35
2023-02-07T11:32:05.690Z,18.75
2023-02-07T11:34:49.647Z,15.85
2023-02-07T11:37:22.146Z,20.07
2023-02-07T11:39:51.473Z,12.77
2023-02-07T11:42:30.554Z,11.30
2023-02-07T11:45:05.495Z,11.50
2023-02-07T11:47:35.618Z,11.80
2023-02-07T11:50:07.408Z,14.30
2023-02-07T11:52:40.482Z,13.10
2023-02-07T11:55:18.800Z,15.07
2023-02-07T11:57:46.529Z,14.80
2023-02-07T12:00:23.793Z,11.73
2023-02-07T12:03:02.502Z,16.42
2023-02-07T12:05:38.057Z,12.85
2023-02-07T12:08:15.403Z,13.27
2023-02-07T12:10:51.193Z,13.85
2023-02-07T12:13:34.252Z,11.98
2023-02-07T12:16:15.099Z,15.38
2023-02-07T12:18:52.659Z,12.23
2023-02-07T12:21:41.023Z,15.20
2023-02-07T12:24:21.144Z,14.30
2023-02-07T12:27:02.654Z,15.60
2023-02-07T12:29:47.936Z,22.58
2023-02-07T12:32:36.082Z,14.18
2023-02-07T12:35:28.425Z,18.80
2023-02-07T12:38:17.128Z,13.80
2023-02-07T12:41:02.825Z,20.50
2023-02-07T12:43:38.102Z,12.80
2023-02-07T12:46:57.857Z,10.55
2023-02-07T12:49:58.594Z,13.20
2023-02-07T12:52:50.693Z,13.55
2023-02-07T12:55:55.354Z,12.57
2023-02-07T12:59:27.452Z,11.57
2023-02-07T13:02:51.136Z,9.30
2023-02-07T13:05:48.604Z,26.60
2023-02-07T13:08:47.001Z,26.25
2023-02-07T13:11:37.174Z,22.65
2023-02-07T13:14:22.377Z,10.52
2023-02-07T13:17:19.352Z,15.80
2023-02-07T13:20:19.304Z,26.02
2023-02-07T13:23:00.430Z,20.50
2023-02-07T13:25:38.574Z,30.63
2023-02-07T13:28:18.507Z,20.08
2023-02-07T13:30:49.251Z,15.65
2023-02-07T13:33:40.562Z,15.52
2023-02-07T13:36:22.034Z,10.45
2023-02-07T13:39:08.098Z,18.77
2023-02-07T13:41:45.564Z,18.30
2023-02-07T13:44:33.084Z,9.70
2023-02-07T13:47:46.263Z,9.13
2023-02-07T13:50:32.333Z,19.17
2023-02-07T13:53:28.942Z,25.98
2023-02-07T13:56:03.675Z,14.75
2023-02-07T13:58:52.295Z,9.00
2023-02-07T14:01:26.446Z,9.95
2023-02-07T14:04:14.166Z,14.48
2023-02-07T14:07:00.441Z,10.68
2023-02-07T14:09:56.875Z,10.95
2023-02-07T14:12:28.020Z,29.83
2023-02-07T14:15:02.626Z,25.02
2023-02-07T14:17:30.170Z,18.70
2023-02-07T14:19:59.308Z,9.68
2023-02-07T14:22:43.339Z,14.40
2023-02-07T14:25:10.828Z,14.55
2023-02-07T14:27:43.444Z,9.88
2023-02-07T14:30:16.233Z,9.77
2023-02-07T14:33:16.976Z,9.35
2023-02-07T14:36:20.406Z,10.48
2023-02-07T14:39:04.448Z,9.77
2023-02-07T14:41:37.593Z,7.93
2023-02-07T14:44:19.265Z,6.95
2023-02-07T14:46:59.103Z,12.00
2023-02-07T14:49:29.021Z,13.88
2023-02-07T14:52:13.456Z,7.75
2023-02-07T14:54:43.033Z,13.88
2023-02-07T14:58:00.178Z,9.73
2023-02-07T15:00:50.082Z,7.53
2023-02-07T15:03:20.127Z,7.43
2023-02-07T15:06:01.605Z,10.05
2023-02-07T15:08:40.444Z,14.32
2023-02-07T15:11:13.109Z,7.03
2023-02-07T15:13:49.797Z,7.57
2023-02-07T15:16:28.608Z,7.30
2023-02-07T15:19:09.382Z,6.07
2023-02-07T15:21:46.260Z,8.02
2023-02-07T15:24:50.894Z,8.85
2023-02-07T15:27:25.314Z,9.77
2023-02-07T15:30:04.254Z,9.40
2023-02-07T15:32:41.300Z,7.28
2023-02-07T15:35:23.601Z,9.60
2023-02-07T15:37:50.834Z,9.60
2023-02-07T15:40:22.813Z,7.65
2023-02-07T15:42:58.241Z,7.28
2023-02-07T15:45:27.767Z,8.80
2023-02-07T15:48:07.823Z,8.80
2023-02-07T15:50:37.244Z,8.38
2023-02-07T15:53:11.457Z,7.57
2023-02-07T15:55:46.409Z,9.88
2023-02-07T15:58:23.091Z,12.23
2023-02-07T16:00:52.664Z,11.38
2023-02-07T16:03:34.357Z,10.48
2023-02-07T16:06:21.892Z,10.95
2023-02-07T16:08:53.531Z,8.60
2023-02-07T16:11:37.199Z,8.30
2023-02-07T16:14:23.446Z,9.38
2023-02-07T16:16:56.941Z,10.07
2023-02-07T16:19:27.061Z,8.32
2023-02-07T16:22:10.610Z,12.30
2023-02-07T16:24:42.754Z,10.55
2023-02-07T16:27:27.458Z,10.95
2023-02-07T16:29:55.941Z,9.80
2023-02-07T16:32:30.890Z,10.38
2023-02-07T16:35:00.454Z,12.38
2023-02-07T16:37:28.683Z,12.52
2023-02-07T16:39:55.641Z,10.77
2023-02-07T16:42:25.725Z,12.85
2023-02-07T16:44:53.788Z,11.07
2023-02-07T16:47:21.512Z,11.43
2023-02-07T16:49:48.523Z,12.75
2023-02-07T16:52:15.483Z,58.97
2023-02-07T16:54:43.246Z,43.33
2023-02-07T16:57:12.662Z,182.32
2023-02-07T16:59:40.962Z,216.18
2023-02-07T17:02:16.585Z,66.18
2023-02-07T17:04:43.671Z,49.28
2023-02-07T17:07:17.132Z,25.63
2023-02-07T17:09:46.857Z,23.48
2023-02-07T17:12:14.475Z,15.43
2023-02-07T17:14:41.536Z,20.48
2023-02-07T17:17:12.104Z,12.93
2023-02-07T17:19:39.218Z,88.30
2023-02-07T17:22:06.216Z,90.15
2023-02-07T17:24:33.261Z,47.25
2023-02-07T17:27:03.415Z,33.72
2023-02-07T17:29:31.793Z,22.45
2023-02-07T17:31:58.896Z,25.27
2023-02-07T17:34:26.899Z,16.73
2023-02-07T17:36:53.884Z,16.88
2023-02-07T17:39:20.867Z,17.02
2023-02-07T17:41:48.517Z,17.63
2023-02-07T17:44:16.996Z,13.88
2023-02-07T17:46:44.055Z,12.05
2023-02-07T17:49:16.407Z,11.63
2023-02-07T17:51:43.522Z,14.90
2023-02-07T17:54:10.465Z,13.00
2023-02-07T17:56:37.871Z,14.05
2023-02-07T17:59:07.454Z,14.32
2023-02-07T18:01:34.603Z,15.80
2023-02-07T18:04:02.627Z,19.63
2023-02-07T18:06:30.663Z,56.05
2023-02-07T18:08:58.677Z,23.45
2023-02-07T18:11:27.747Z,23.75
2023-02-07T18:13:57.045Z,13.93
2023-02-07T18:16:26.651Z,20.50
2023-02-07T18:18:56.697Z,15.95
2023-02-07T18:21:24.230Z,15.23
2023-02-07T18:23:53.476Z,12.15
2023-02-07T18:26:22.257Z,20.73
2023-02-07T18:28:50.024Z,16.65
2023-02-07T18:31:22.163Z,15.60
2023-02-07T18:33:50.692Z,13.52
2023-02-07T18:36:18.754Z,16.42
2023-02-07T18:38:45.736Z,14.80
2023-02-07T18:41:21.754Z,14.85
2023-02-07T18:43:50.138Z,16.90
2023-02-07T18:46:20.642Z,16.27
2023-02-07T18:48:51.097Z,14.65
2023-02-07T18:51:19.609Z,16.55
2023-02-07T18:53:47.352Z,18.25
2023-02-07T18:56:20.820Z,15.73
2023-02-07T18:58:48.131Z,15.23
2023-02-07T19:01:21.402Z,19.75
2023-02-07T19:03:54.246Z,14.55
2023-02-07T19:06:24.460Z,18.40
2023-02-07T19:08:51.800Z,18.15
2023-02-07T19:11:19.371Z,23.73
2023-02-07T19:13:47.098Z,33.10
2023-02-07T19:16:22.261Z,34.70
2023-02-07T19:18:50.633Z,32.85
2023-02-07T19:21:23.832Z,34.15
2023-02-07T19:23:51.205Z,33.00
2023-02-07T19:26:18.386Z,25.13
2023-02-07T19:28:45.329Z,17.55
2023-02-07T19:31:18.272Z,19.23
2023-02-07T19:33:49.613Z,18.95
2023-02-07T19:36:18.950Z,17.73
2023-02-07T19:38:48.615Z,17.45
2023-02-07T19:41:19.212Z,16.48
2023-02-07T19:43:46.707Z,16.95
2023-02-07T19:46:13.659Z,20.77
2023-02-07T19:48:40.753Z,16.38
2023-02-07T19:51:17.820Z,17.83
2023-02-07T19:53:47.082Z,18.13
2023-02-07T19:56:14.640Z,17.23
2023-02-07T19:58:45.859Z,18.90
2023-02-07T20:01:13.170Z,18.58
2023-02-07T20:03:41.005Z,22.00
2023-02-07T20:06:12.267Z,23.70
2023-02-07T20:08:40.538Z,26.75
2023-02-07T20:11:12.877Z,24.92
2023-02-07T20:13:44.712Z,28.15
2023-02-07T20:16:16.351Z,21.70
2023-02-07T20:18:43.816Z,20.13
2023-02-07T20:21:18.566Z,23.08
2023-02-07T20:23:46.922Z,19.02
2023-02-07T20:26:19.170Z,19.27
2023-02-07T20:28:46.994Z,20.85
2023-02-07T20:31:18.014Z,19.70
2023-02-07T20:33:46.087Z,20.60
2023-02-07T20:36:17.153Z,18.52
2023-02-07T20:38:45.982Z,17.27
2023-02-07T20:41:29.136Z,17.58
2023-02-07T20:44:07.140Z,16.30
2023-02-07T20:46:36.769Z,19.38
2023-02-07T20:49:12.013Z,18.02
2023-02-07T20:51:39.144Z,16.17
2023-02-07T20:54:07.280Z,17.13
2023-02-07T20:56:34.853Z,17.05
2023-02-07T20:59:01.796Z,19.52
2023-02-07T21:01:32.010Z,16.45
2023-02-07T21:04:04.662Z,17.67
2023-02-07T21:06:34.706Z,18.13
2023-02-07T21:09:05.262Z,15.55
2023-02-07T21:11:45.956Z,17.73
2023-02-07T21:14:24.766Z,19.20
2023-02-07T21:16:57.830Z,18.83
2023-02-07T21:19:25.606Z,15.35
2023-02-07T21:21:55.002Z,15.65
2023-02-07T21:24:23.409Z,15.85
2023-02-07T21:26:53.226Z,20.27
2023-02-07T21:29:21.650Z,17.95
2023-02-07T21:31:49.381Z,17.00
2023-02-07T21:34:20.986Z,17.52
2023-02-07T21:39:34.173Z,17.90
2023-02-07T21:42:01.080Z,16.13
2023-02-07T21:44:29.302Z,15.90
2023-02-07T21:46:57.259Z,15.88
2023-02-07T21:49:24.580Z,18.25
2023-02-07T21:51:53.703Z,22.27
2023-02-07T21:54:21.182Z,21.00
2023-02-07T21:56:50.732Z,19.85
2023-02-07T21:59:20.497Z,17.85
2023-02-07T22:01:48.084Z,16.08
2023-02-07T22:04:15.510Z,17.90
2023-02-07T22:06:44.876Z,17.42
2023-02-07T22:09:16.488Z,20.73
2023-02-07T22:11:46.640Z,15.05
2023-02-07T22:14:14.723Z,15.77
2023-02-07T22:16:42.254Z,17.25
2023-02-07T22:19:13.533Z,18.40
2023-02-07T22:21:40.622Z,16.27
2023-02-07T22:24:08.154Z,16.90
2023-02-07T22:26:35.508Z,17.13
2023-02-07T22:29:05.044Z,15.38
2023-02-07T22:31:36.271Z,15.23
2023-02-07T22:34:10.836Z,16.25
2023-02-07T22:39:08.845Z,15.52
2023-02-07T22:41:36.357Z,16.50
2023-02-07T22:44:03.715Z,16.95
2023-02-07T22:46:31.237Z,16.60
2023-02-07T22:48:58.815Z,18.88
2023-02-07T22:51:37.896Z,20.83
2023-02-07T22:54:12.788Z,18.77
2023-02-07T22:56:39.769Z,17.92
2023-02-07T22:59:07.579Z,14.95
2023-02-07T23:01:39.428Z,17.70
2023-02-07T23:04:12.858Z,18.42
2023-02-07T23:06:40.061Z,17.25
2023-02-07T23:09:07.453Z,16.85
2023-02-07T23:11:35.395Z,20.83
2023-02-07T23:14:03.628Z,16.35
2023-02-07T23:16:32.109Z,17.80
2023-02-07T23:19:06.697Z,18.60
2023-02-07T23:21:34.102Z,18.13
2023-02-07T23:24:01.136Z,18.30
2023-02-07T23:26:28.153Z,15.73
2023-02-07T23:28:55.174Z,20.10
2023-02-07T23:31:24.400Z,17.17
2023-02-07T23:33:53.154Z,18.35
2023-02-07T23:36:21.300Z,19.95
2023-02-07T23:38:49.761Z,18.48
2023-02-07T23:44:02.717Z,18.95
2023-02-07T23:46:30.674Z,20.05
2023-02-07T23:48:58.219Z,18.27
2023-02-07T23:51:26.118Z,19.60
2023-02-07T23:53:53.582Z,18.23
2023-02-07T23:56:23.002Z,18.92
2023-02-07T23:58:52.546Z,19.80
